sensor_id;sensor_type;location;lat;lon;timestamp;pressure;altitude;pressure_sealevel;temperature;humidity
45255;BME280;30989;52.078;21.014;2023-02-15T00:01:48;164510.84;;;2.90;100.00
45255;BME280;30989;52.078;21.014;2023-02-15T00:04:15;164517.53;;;2.93;100.00
45255;BME280;30989;52.078;21.014;2023-02-15T00:06:41;164508.19;;;2.89;100.00
45255;BME280;30989;52.078;21.014;2023-02-15T00:09:06;164502.88;;;2.87;100.00
45255;BME280;30989;52.078;21.014;2023-02-15T00:11:32;164486.88;;;2.81;100.00
45255;BME280;30989;52.078;21.014;2023-02-15T00:14:24;164484.22;;;2.80;100.00
45255;BME280;30989;52.078;21.014;2023-02-15T00:16:51;164494.88;;;2.84;100.00
45255;BME280;30989;52.078;21.014;2023-02-15T00:19:19;164486.88;;;2.81;100.00
45255;BME280;30989;52.078;21.014;2023-02-15T00:21:45;164478.88;;;2.78;100.00
45255;BME280;30989;52.078;21.014;2023-02-15T00:24:12;164473.56;;;2.76;100.00
45255;BME280;30989;52.078;21.014;2023-02-15T00:26:40;164458.91;;;2.71;100.00
45255;BME280;30989;52.078;21.014;2023-02-15T00:29:06;164442.91;;;2.65;100.00
45255;BME280;30989;52.078;21.014;2023-02-15T00:31:32;164454.91;;;2.69;100.00
45255;BME280;30989;52.078;21.014;2023-02-15T00:34:02;164452.25;;;2.68;100.00
45255;BME280;30989;52.078;21.014;2023-02-15T00:36:28;164428.25;;;2.59;100.00
45255;BME280;30989;52.078;21.014;2023-02-15T00:38:54;164442.91;;;2.65;100.00
45255;BME280;30989;52.078;21.014;2023-02-15T00:41:19;164438.91;;;2.63;100.00
45255;BME280;30989;52.078;21.014;2023-02-15T00:43:45;164444.25;;;2.65;100.00
45255;BME280;30989;52.078;21.014;2023-02-15T00:46:10;164448.25;;;2.67;100.00
45255;BME280;30989;52.078;21.014;2023-02-15T00:48:38;164445.56;;;2.66;100.00
45255;BME280;30989;52.078;21.014;2023-02-15T00:51:04;164430.91;;;2.60;100.00
45255;BME280;30989;52.078;21.014;2023-02-15T00:53:29;164441.56;;;2.64;100.00
45255;BME280;30989;52.078;21.014;2023-02-15T00:55:56;164430.91;;;2.60;100.00
45255;BME280;30989;52.078;21.014;2023-02-15T00:58:22;164414.94;;;2.54;100.00
45255;BME280;30989;52.078;21.014;2023-02-15T01:00:48;164422.94;;;2.57;100.00
45255;BME280;30989;52.078;21.014;2023-02-15T01:03:16;164428.25;;;2.59;100.00
45255;BME280;30989;52.078;21.014;2023-02-15T01:05:42;164428.25;;;2.59;100.00
45255;BME280;30989;52.078;21.014;2023-02-15T01:08:08;164420.25;;;2.56;100.00
45255;BME280;30989;52.078;21.014;2023-02-15T01:10:35;164420.25;;;2.56;100.00
45255;BME280;30989;52.078;21.014;2023-02-15T01:13:01;164425.59;;;2.58;100.00
45255;BME280;30989;52.078;21.014;2023-02-15T01:15:26;164414.94;;;2.54;100.00
45255;BME280;30989;52.078;21.014;2023-02-15T01:17:52;164414.94;;;2.54;100.00
45255;BME280;30989;52.078;21.014;2023-02-15T01:20:22;164418.94;;;2.55;100.00
45255;BME280;30989;52.078;21.014;2023-02-15T01:22:48;164422.94;;;2.57;100.00
45255;BME280;30989;52.078;21.014;2023-02-15T01:25:18;164413.59;;;2.53;100.00
45255;BME280;30989;52.078;21.014;2023-02-15T01:27:45;164418.94;;;2.55;100.00
45255;BME280;30989;52.078;21.014;2023-02-15T01:30:12;164428.25;;;2.59;100.00
45255;BME280;30989;52.078;21.014;2023-02-15T01:32:38;164430.91;;;2.60;100.00
45255;BME280;30989;52.078;21.014;2023-02-15T01:35:04;164440.25;;;2.64;100.00
45255;BME280;30989;52.078;21.014;2023-02-15T01:37:31;164444.25;;;2.65;100.00
45255;BME280;30989;52.078;21.014;2023-02-15T01:39:57;164454.91;;;2.69;100.00
45255;BME280;30989;52.078;21.014;2023-02-15T01:42:24;164453.56;;;2.69;100.00
45255;BME280;30989;52.078;21.014;2023-02-15T01:44:55;164454.91;;;2.69;100.00
45255;BME280;30989;52.078;21.014;2023-02-15T01:47:41;164469.56;;;2.75;100.00
45255;BME280;30989;52.078;21.014;2023-02-15T01:50:23;164474.88;;;2.77;100.00
45255;BME280;30989;52.078;21.014;2023-02-15T01:53:02;164480.22;;;2.79;100.00
45255;BME280;30989;52.078;21.014;2023-02-15T01:55:39;164478.88;;;2.78;100.00
45255;BME280;30989;52.078;21.014;2023-02-15T01:58:06;164478.88;;;2.78;100.00
45255;BME280;30989;52.078;21.014;2023-02-15T02:00:33;164477.56;;;2.78;100.00
45255;BME280;30989;52.078;21.014;2023-02-15T02:02:59;164478.88;;;2.78;100.00
45255;BME280;30989;52.078;21.014;2023-02-15T02:05:25;164457.56;;;2.70;100.00
45255;BME280;30989;52.078;21.014;2023-02-15T02:07:52;164482.88;;;2.80;100.00
45255;BME280;30989;52.078;21.014;2023-02-15T02:10:22;164470.88;;;2.75;100.00
45255;BME280;30989;52.078;21.014;2023-02-15T02:12:52;164480.22;;;2.79;100.00
45255;BME280;30989;52.078;21.014;2023-02-15T02:15:23;164472.22;;;2.76;100.00
45255;BME280;30989;52.078;21.014;2023-02-15T02:20:55;164444.25;;;2.65;100.00
45255;BME280;30989;52.078;21.014;2023-02-15T02:29:13;164438.91;;;2.63;100.00
45255;BME280;30989;52.078;21.014;2023-02-15T02:32:17;164437.59;;;2.63;100.00
45255;BME280;30989;52.078;21.014;2023-02-15T02:35:04;164437.59;;;2.63;100.00
45255;BME280;30989;52.078;21.014;2023-02-15T02:37:46;164436.25;;;2.62;100.00
45255;BME280;30989;52.078;21.014;2023-02-15T02:40:49;164434.91;;;2.62;100.00
45255;BME280;30989;52.078;21.014;2023-02-15T02:46:06;164425.59;;;2.58;100.00
45255;BME280;30989;52.078;21.014;2023-02-15T02:48:37;164429.59;;;2.59;100.00
45255;BME280;30989;52.078;21.014;2023-02-15T02:51:03;164422.94;;;2.57;100.00
45255;BME280;30989;52.078;21.014;2023-02-15T02:53:30;164421.59;;;2.56;100.00
45255;BME280;30989;52.078;21.014;2023-02-15T02:56:00;164400.28;;;2.48;100.00
45255;BME280;30989;52.078;21.014;2023-02-15T02:58:36;164414.94;;;2.54;100.00
45255;BME280;30989;52.078;21.014;2023-02-15T03:01:15;164409.59;;;2.52;100.00
45255;BME280;30989;52.078;21.014;2023-02-15T03:03:59;164397.63;;;2.47;100.00
45255;BME280;30989;52.078;21.014;2023-02-15T03:06:40;164417.59;;;2.55;100.00
45255;BME280;30989;52.078;21.014;2023-02-15T03:09:18;164412.28;;;2.53;100.00
45255;BME280;30989;52.078;21.014;2023-02-15T03:11:46;164410.94;;;2.52;100.00
45255;BME280;30989;52.078;21.014;2023-02-15T03:14:15;164413.59;;;2.53;100.00
45255;BME280;30989;52.078;21.014;2023-02-15T03:16:47;164412.28;;;2.53;100.00
45255;BME280;30989;52.078;21.014;2023-02-15T03:19:17;164412.28;;;2.53;100.00
45255;BME280;30989;52.078;21.014;2023-02-15T03:21:50;164409.59;;;2.52;100.00
45255;BME280;30989;52.078;21.014;2023-02-15T03:27:15;164414.94;;;2.54;100.00
45255;BME280;30989;52.078;21.014;2023-02-15T03:29:46;164414.94;;;2.54;100.00
45255;BME280;30989;52.078;21.014;2023-02-15T03:32:14;164398.94;;;2.48;100.00
45255;BME280;30989;52.078;21.014;2023-02-15T03:34:41;164398.94;;;2.48;100.00
45255;BME280;30989;52.078;21.014;2023-02-15T03:37:48;164421.59;;;2.56;100.00
45255;BME280;30989;52.078;21.014;2023-02-15T03:40:21;164420.25;;;2.56;100.00
45255;BME280;30989;52.078;21.014;2023-02-15T03:46:14;164414.94;;;2.54;100.00
45255;BME280;30989;52.078;21.014;2023-02-15T03:48:58;164397.63;;;2.47;100.00
45255;BME280;30989;52.078;21.014;2023-02-15T03:51:30;164385.63;;;2.43;100.00
45255;BME280;30989;52.078;21.014;2023-02-15T03:54:05;164388.28;;;2.44;100.00
45255;BME280;30989;52.078;21.014;2023-02-15T03:56:34;164392.28;;;2.45;100.00
45255;BME280;30989;52.078;21.014;2023-02-15T03:59:01;164397.63;;;2.47;100.00
45255;BME280;30989;52.078;21.014;2023-02-15T04:02:21;164402.94;;;2.49;100.00
45255;BME280;30989;52.078;21.014;2023-02-15T04:04:46;164401.63;;;2.49;100.00
45255;BME280;30989;52.078;21.014;2023-02-15T04:07:12;164396.28;;;2.47;100.00
45255;BME280;30989;52.078;21.014;2023-02-15T04:09:38;164406.94;;;2.51;100.00
45255;BME280;30989;52.078;21.014;2023-02-15T04:12:22;164401.63;;;2.49;100.00
45255;BME280;30989;52.078;21.014;2023-02-15T04:14:48;164402.94;;;2.49;100.00
45255;BME280;30989;52.078;21.014;2023-02-15T04:17:32;164406.94;;;2.51;100.00
45255;BME280;30989;52.078;21.014;2023-02-15T04:19:57;164412.28;;;2.53;100.00
45255;BME280;30989;52.078;21.014;2023-02-15T04:22:41;164413.59;;;2.53;100.00
45255;BME280;30989;52.078;21.014;2023-02-15T04:25:26;164417.59;;;2.55;100.00
45255;BME280;30989;52.078;21.014;2023-02-15T04:27:53;164417.59;;;2.55;100.00
45255;BME280;30989;52.078;21.014;2023-02-15T04:30:25;164414.94;;;2.54;100.00
45255;BME280;30989;52.078;21.014;2023-02-15T04:32:50;164402.94;;;2.49;100.00
45255;BME280;30989;52.078;21.014;2023-02-15T04:35:16;164400.28;;;2.48;100.00
45255;BME280;30989;52.078;21.014;2023-02-15T04:37:43;164394.97;;;2.46;100.00
45255;BME280;30989;52.078;21.014;2023-02-15T04:40:11;164401.63;;;2.49;100.00
45255;BME280;30989;52.078;21.014;2023-02-15T04:42:37;164384.28;;;2.42;100.00
45255;BME280;30989;52.078;21.014;2023-02-15T04:45:03;164376.31;;;2.39;100.00
45255;BME280;30989;52.078;21.014;2023-02-15T04:47:29;164380.31;;;2.41;100.00
45255;BME280;30989;52.078;21.014;2023-02-15T04:49:54;164361.66;;;2.34;100.00
45255;BME280;30989;52.078;21.014;2023-02-15T04:52:20;164364.31;;;2.35;100.00
45255;BME280;30989;52.078;21.014;2023-02-15T04:54:45;164364.31;;;2.35;100.00
45255;BME280;30989;52.078;21.014;2023-02-15T04:57:11;164355.00;;;2.31;100.00
45255;BME280;30989;52.078;21.014;2023-02-15T04:59:37;164353.66;;;2.31;100.00
45255;BME280;30989;52.078;21.014;2023-02-15T05:02:03;164324.38;;;2.19;100.00
45255;BME280;30989;52.078;21.014;2023-02-15T05:04:28;164353.66;;;2.31;100.00
45255;BME280;30989;52.078;21.014;2023-02-15T05:06:54;164335.00;;;2.23;100.00
45255;BME280;30989;52.078;21.014;2023-02-15T05:09:19;164348.34;;;2.29;100.00
45255;BME280;30989;52.078;21.014;2023-02-15T05:11:45;164324.38;;;2.19;100.00
45255;BME280;30989;52.078;21.014;2023-02-15T05:14:10;164341.69;;;2.26;100.00
45255;BME280;30989;52.078;21.014;2023-02-15T05:16:36;164359.00;;;2.33;100.00
45255;BME280;30989;52.078;21.014;2023-02-15T05:19:01;164372.31;;;2.38;100.00
45255;BME280;30989;52.078;21.014;2023-02-15T05:21:27;164369.66;;;2.37;100.00
45255;BME280;30989;52.078;21.014;2023-02-15T05:23:53;164382.97;;;2.42;100.00
45255;BME280;30989;52.078;21.014;2023-02-15T05:26:21;164381.63;;;2.41;100.00
45255;BME280;30989;52.078;21.014;2023-02-15T05:29:05;164376.31;;;2.39;100.00
45255;BME280;30989;52.078;21.014;2023-02-15T05:31:31;164366.97;;;2.36;100.00
45255;BME280;30989;52.078;21.014;2023-02-15T05:33:57;164360.31;;;2.33;100.00
45255;BME280;30989;52.078;21.014;2023-02-15T05:36:23;164353.66;;;2.31;100.00
45255;BME280;30989;52.078;21.014;2023-02-15T05:38:49;164349.66;;;2.29;100.00
45255;BME280;30989;52.078;21.014;2023-02-15T05:41:15;164340.34;;;2.25;100.00
45255;BME280;30989;52.078;21.014;2023-02-15T05:43:40;164317.72;;;2.17;100.00
45255;BME280;30989;52.078;21.014;2023-02-15T05:46:06;164321.69;;;2.18;100.00
45255;BME280;30989;52.078;21.014;2023-02-15T05:48:32;164316.38;;;2.16;100.00
45255;BME280;30989;52.078;21.014;2023-02-15T05:51:21;164303.06;;;2.11;100.00
45255;BME280;30989;52.078;21.014;2023-02-15T05:53:47;164308.38;;;2.13;100.00
45255;BME280;30989;52.078;21.014;2023-02-15T05:56:12;164308.38;;;2.13;100.00
45255;BME280;30989;52.078;21.014;2023-02-15T05:58:40;164281.75;;;2.03;100.00
45255;BME280;30989;52.078;21.014;2023-02-15T06:01:17;164301.72;;;2.11;100.00
45255;BME280;30989;52.078;21.014;2023-02-15T06:03:44;164297.72;;;2.09;100.00
45255;BME280;30989;52.078;21.014;2023-02-15T06:06:10;164284.41;;;2.04;100.00
45255;BME280;30989;52.078;21.014;2023-02-15T06:08:36;164289.75;;;2.06;100.00
45255;BME280;30989;52.078;21.014;2023-02-15T06:11:02;164281.75;;;2.03;100.00
45255;BME280;30989;52.078;21.014;2023-02-15T06:13:29;164281.75;;;2.03;100.00
45255;BME280;30989;52.078;21.014;2023-02-15T06:15:54;164268.44;;;1.98;100.00
45255;BME280;30989;52.078;21.014;2023-02-15T06:18:20;164260.44;;;1.95;100.00
45255;BME280;30989;52.078;21.014;2023-02-15T06:20:46;164236.47;;;1.86;100.00
45255;BME280;30989;52.078;21.014;2023-02-15T06:23:11;164231.16;;;1.84;100.00
45255;BME280;30989;52.078;21.014;2023-02-15T06:25:37;164225.81;;;1.82;100.00
45255;BME280;30989;52.078;21.014;2023-02-15T06:28:02;164219.16;;;1.79;100.00
45255;BME280;30989;52.078;21.014;2023-02-15T06:30:27;164231.16;;;1.84;100.00
45255;BME280;30989;52.078;21.014;2023-02-15T06:32:53;164228.50;;;1.83;100.00
45255;BME280;30989;52.078;21.014;2023-02-15T06:35:18;164244.47;;;1.89;100.00
45255;BME280;30989;52.078;21.014;2023-02-15T06:37:45;164244.47;;;1.89;100.00
45255;BME280;30989;52.078;21.014;2023-02-15T06:40:12;164244.47;;;1.89;100.00
45255;BME280;30989;52.078;21.014;2023-02-15T06:42:37;164255.13;;;1.93;100.00
45255;BME280;30989;52.078;21.014;2023-02-15T06:45:04;164261.78;;;1.96;100.00
45255;BME280;30989;52.078;21.014;2023-02-15T06:47:29;164264.44;;;1.97;100.00
45255;BME280;30989;52.078;21.014;2023-02-15T06:49:54;164263.09;;;1.96;100.00
45255;BME280;30989;52.078;21.014;2023-02-15T06:52:20;164251.13;;;1.91;100.00
45255;BME280;30989;52.078;21.014;2023-02-15T06:54:45;164240.47;;;1.87;100.00
45255;BME280;30989;52.078;21.014;2023-02-15T06:57:11;164247.13;;;1.90;100.00
45255;BME280;30989;52.078;21.014;2023-02-15T06:59:36;164241.81;;;1.88;100.00
45255;BME280;30989;52.078;21.014;2023-02-15T07:02:02;164245.78;;;1.89;100.00
45255;BME280;30989;52.078;21.014;2023-02-15T07:04:27;164236.47;;;1.86;100.00
45255;BME280;30989;52.078;21.014;2023-02-15T07:06:54;164241.81;;;1.88;100.00
45255;BME280;30989;52.078;21.014;2023-02-15T07:09:20;164223.16;;;1.81;100.00
45255;BME280;30989;52.078;21.014;2023-02-15T07:11:45;164217.84;;;1.79;100.00
45255;BME280;30989;52.078;21.014;2023-02-15T07:14:29;164203.19;;;1.73;100.00
45255;BME280;30989;52.078;21.014;2023-02-15T07:16:55;164220.50;;;1.80;100.00
45255;BME280;30989;52.078;21.014;2023-02-15T07:19:20;164239.13;;;1.87;100.00
45255;BME280;30989;52.078;21.014;2023-02-15T07:21:46;164259.13;;;1.94;100.00
45255;BME280;30989;52.078;21.014;2023-02-15T07:24:11;164263.09;;;1.96;100.00
45255;BME280;30989;52.078;21.014;2023-02-15T07:26:37;164276.41;;;2.01;100.00
45255;BME280;30989;52.078;21.014;2023-02-15T07:29:02;164263.09;;;1.96;100.00
45255;BME280;30989;52.078;21.014;2023-02-15T07:31:28;164276.41;;;2.01;100.00
45255;BME280;30989;52.078;21.014;2023-02-15T07:33:53;164267.09;;;1.98;100.00
45255;BME280;30989;52.078;21.014;2023-02-15T07:36:19;164247.13;;;1.90;100.00
45255;BME280;30989;52.078;21.014;2023-02-15T07:38:44;164227.16;;;1.82;100.00
45255;BME280;30989;52.078;21.014;2023-02-15T07:41:12;164201.84;;;1.73;100.00
45255;BME280;30989;52.078;21.014;2023-02-15T07:43:40;164200.53;;;1.72;100.00
45255;BME280;30989;52.078;21.014;2023-02-15T07:46:09;164209.84;;;1.76;100.00
45255;BME280;30989;52.078;21.014;2023-02-15T07:48:35;164201.84;;;1.73;100.00
45255;BME280;30989;52.078;21.014;2023-02-15T07:51:02;164207.19;;;1.75;100.00
45255;BME280;30989;52.078;21.014;2023-02-15T07:53:29;164205.84;;;1.74;100.00
45255;BME280;30989;52.078;21.014;2023-02-15T07:55:58;164204.53;;;1.74;100.00
45255;BME280;30989;52.078;21.014;2023-02-15T07:58:24;164208.50;;;1.75;100.00
45255;BME280;30989;52.078;21.014;2023-02-15T08:01:10;164180.56;;;1.65;100.00
45255;BME280;30989;52.078;21.014;2023-02-15T08:03:35;164172.56;;;1.61;100.00
45255;BME280;30989;52.078;21.014;2023-02-15T08:06:01;164164.59;;;1.58;100.00
45255;BME280;30989;52.078;21.014;2023-02-15T08:08:26;164165.91;;;1.59;100.00
45255;BME280;30989;52.078;21.014;2023-02-15T08:13:45;164159.25;;;1.56;100.00
45255;BME280;30989;52.078;21.014;2023-02-15T08:18:48;164159.25;;;1.56;100.00
45255;BME280;30989;52.078;21.014;2023-02-15T08:21:13;164147.28;;;1.52;100.00
45255;BME280;30989;52.078;21.014;2023-02-15T08:23:39;164153.94;;;1.54;100.00
45255;BME280;30989;52.078;21.014;2023-02-15T08:26:04;164153.94;;;1.54;100.00
45255;BME280;30989;52.078;21.014;2023-02-15T08:28:30;164161.91;;;1.57;100.00
45255;BME280;30989;52.078;21.014;2023-02-15T08:33:31;164172.56;;;1.61;100.00
45255;BME280;30989;52.078;21.014;2023-02-15T08:36:02;164177.91;;;1.64;100.00
45255;BME280;30989;52.078;21.014;2023-02-15T08:38:28;164175.25;;;1.63;100.00
45255;BME280;30989;52.078;21.014;2023-02-15T08:40:53;164177.91;;;1.64;100.00
45255;BME280;30989;52.078;21.014;2023-02-15T08:43:19;164183.22;;;1.66;100.00
45255;BME280;30989;52.078;21.014;2023-02-15T08:45:44;164184.56;;;1.66;100.00
45255;BME280;30989;52.078;21.014;2023-02-15T08:48:10;164191.22;;;1.69;100.00
45255;BME280;30989;52.078;21.014;2023-02-15T08:50:35;164219.16;;;1.79;100.00
45255;BME280;30989;52.078;21.014;2023-02-15T08:53:00;164229.81;;;1.83;100.00
45255;BME280;30989;52.078;21.014;2023-02-15T08:55:26;164239.13;;;1.87;100.00
45255;BME280;30989;52.078;21.014;2023-02-15T08:57:51;164227.16;;;1.82;100.00
45255;BME280;30989;52.078;21.014;2023-02-15T09:00:21;164247.13;;;1.90;100.00
45255;BME280;30989;52.078;21.014;2023-02-15T09:02:50;164240.47;;;1.87;100.00
45255;BME280;30989;52.078;21.014;2023-02-15T09:05:15;164257.78;;;1.94;100.00
45255;BME280;30989;52.078;21.014;2023-02-15T09:07:41;164261.78;;;1.96;100.00
45255;BME280;30989;52.078;21.014;2023-02-15T09:10:06;164245.78;;;1.89;100.00
45255;BME280;30989;52.078;21.014;2023-02-15T09:12:32;164260.44;;;1.95;100.00
45255;BME280;30989;52.078;21.014;2023-02-15T09:14:57;164275.09;;;2.01;100.00
45255;BME280;30989;52.078;21.014;2023-02-15T09:17:23;164275.09;;;2.01;100.00
45255;BME280;30989;52.078;21.014;2023-02-15T09:19:49;164257.78;;;1.94;100.00
45255;BME280;30989;52.078;21.014;2023-02-15T09:22:14;164251.13;;;1.91;100.00
45255;BME280;30989;52.078;21.014;2023-02-15T09:24:39;164265.78;;;1.97;100.00
45255;BME280;30989;52.078;21.014;2023-02-15T09:27:05;164269.75;;;1.99;100.00
45255;BME280;30989;52.078;21.014;2023-02-15T09:29:30;164273.75;;;2.00;100.00
45255;BME280;30989;52.078;21.014;2023-02-15T09:31:56;164304.38;;;2.12;100.00
45255;BME280;30989;52.078;21.014;2023-02-15T09:34:22;164320.38;;;2.18;100.00
45255;BME280;30989;52.078;21.014;2023-02-15T09:36:48;164324.38;;;2.19;100.00
45255;BME280;30989;52.078;21.014;2023-02-15T09:39:22;164349.66;;;2.29;100.00
45255;BME280;30989;52.078;21.014;2023-02-15T09:44:22;164321.69;;;2.18;100.00
45255;BME280;30989;52.078;21.014;2023-02-15T10:00:46;164343.00;;;2.26;100.00
45255;BME280;30989;52.078;21.014;2023-02-15T10:03:42;164349.66;;;2.29;100.00
45255;BME280;30989;52.078;21.014;2023-02-15T10:06:25;164366.97;;;2.36;100.00
45255;BME280;30989;52.078;21.014;2023-02-15T10:14:47;164392.28;;;2.45;100.00
45255;BME280;30989;52.078;21.014;2023-02-15T10:20:27;164388.28;;;2.44;100.00
45255;BME280;30989;52.078;21.014;2023-02-15T10:28:26;164410.94;;;2.52;100.00
45255;BME280;30989;52.078;21.014;2023-02-15T10:31:06;164410.94;;;2.52;100.00
45255;BME280;30989;52.078;21.014;2023-02-15T10:33:43;164414.94;;;2.54;100.00
45255;BME280;30989;52.078;21.014;2023-02-15T10:39:02;164440.25;;;2.64;100.00
45255;BME280;30989;52.078;21.014;2023-02-15T10:50:24;164434.91;;;2.62;100.00
45255;BME280;30989;52.078;21.014;2023-02-15T10:55:45;164436.25;;;2.62;100.00
45255;BME280;30989;52.078;21.014;2023-02-15T10:58:17;164441.56;;;2.64;100.00
45255;BME280;30989;52.078;21.014;2023-02-15T11:06:19;164430.91;;;2.60;100.00
45255;BME280;30989;52.078;21.014;2023-02-15T11:08:52;164436.25;;;2.62;100.00
45255;BME280;30989;52.078;21.014;2023-02-15T11:11:31;164437.59;;;2.63;100.00
45255;BME280;30989;52.078;21.014;2023-02-15T11:14:02;164446.91;;;2.66;100.00
45255;BME280;30989;52.078;21.014;2023-02-15T11:16:36;164445.56;;;2.66;100.00
45255;BME280;30989;52.078;21.014;2023-02-15T11:19:15;164444.25;;;2.65;100.00
45255;BME280;30989;52.078;21.014;2023-02-15T11:21:45;164446.91;;;2.66;100.00
45255;BME280;30989;52.078;21.014;2023-02-15T11:24:13;164448.25;;;2.67;100.00
45255;BME280;30989;52.078;21.014;2023-02-15T11:26:47;164450.91;;;2.68;100.00
45255;BME280;30989;52.078;21.014;2023-02-15T11:29:34;164458.91;;;2.71;100.00
45255;BME280;30989;52.078;21.014;2023-02-15T11:32:11;164462.91;;;2.72;100.00
45255;BME280;30989;52.078;21.014;2023-02-15T11:38:40;164444.25;;;2.65;100.00
45255;BME280;30989;52.078;21.014;2023-02-15T11:40:53;164425.59;;;2.58;100.00
45255;BME280;30989;52.078;21.014;2023-02-15T11:43:38;164422.94;;;2.57;100.00
45255;BME280;30989;52.078;21.014;2023-02-15T11:46:05;164418.94;;;2.55;100.00
45255;BME280;30989;52.078;21.014;2023-02-15T11:48:33;164412.28;;;2.53;100.00
45255;BME280;30989;52.078;21.014;2023-02-15T11:51:00;164408.28;;;2.51;100.00
45255;BME280;30989;52.078;21.014;2023-02-15T11:53:29;164398.94;;;2.48;100.00
45255;BME280;30989;52.078;21.014;2023-02-15T11:55:57;164406.94;;;2.51;100.00
45255;BME280;30989;52.078;21.014;2023-02-15T12:01:20;164425.59;;;2.58;100.00
45255;BME280;30989;52.078;21.014;2023-02-15T12:03:50;164402.94;;;2.49;100.00
45255;BME280;30989;52.078;21.014;2023-02-15T12:06:22;164401.63;;;2.49;100.00
45255;BME280;30989;52.078;21.014;2023-02-15T12:11:30;164410.94;;;2.52;100.00
45255;BME280;30989;52.078;21.014;2023-02-15T12:14:00;164397.63;;;2.47;100.00
45255;BME280;30989;52.078;21.014;2023-02-15T12:16:27;164409.59;;;2.52;100.00
45255;BME280;30989;52.078;21.014;2023-02-15T12:18:59;164416.28;;;2.54;100.00
45255;BME280;30989;52.078;21.014;2023-02-15T12:21:29;164418.94;;;2.55;100.00
45255;BME280;30989;52.078;21.014;2023-02-15T12:27:14;164449.56;;;2.67;100.00
45255;BME280;30989;52.078;21.014;2023-02-15T12:29:53;164458.91;;;2.71;100.00
45255;BME280;30989;52.078;21.014;2023-02-15T12:32:35;164446.91;;;2.66;100.00
45255;BME280;30989;52.078;21.014;2023-02-15T12:35:08;164422.94;;;2.57;100.00
45255;BME280;30989;52.078;21.014;2023-02-15T12:37:38;164414.94;;;2.54;100.00
45255;BME280;30989;52.078;21.014;2023-02-15T12:40:24;164414.94;;;2.54;100.00
45255;BME280;30989;52.078;21.014;2023-02-15T12:42:51;164414.94;;;2.54;100.00
45255;BME280;30989;52.078;21.014;2023-02-15T12:45:29;164418.94;;;2.55;100.00
45255;BME280;30989;52.078;21.014;2023-02-15T12:48:15;164421.59;;;2.56;100.00
45255;BME280;30989;52.078;21.014;2023-02-15T12:50:48;164424.25;;;2.57;100.00
45255;BME280;30989;52.078;21.014;2023-02-15T12:53:30;164433.59;;;2.61;100.00
45255;BME280;30989;52.078;21.014;2023-02-15T12:55:58;164417.59;;;2.55;100.00
45255;BME280;30989;52.078;21.014;2023-02-15T12:58:28;164424.25;;;2.57;100.00
45255;BME280;30989;52.078;21.014;2023-02-15T13:01:11;164425.59;;;2.58;100.00
45255;BME280;30989;52.078;21.014;2023-02-15T13:06:27;164430.91;;;2.60;100.00
45255;BME280;30989;52.078;21.014;2023-02-15T13:08:57;164421.59;;;2.56;100.00
45255;BME280;30989;52.078;21.014;2023-02-15T13:11:30;164417.59;;;2.55;100.00
45255;BME280;30989;52.078;21.014;2023-02-15T13:16:43;164409.59;;;2.52;100.00
45255;BME280;30989;52.078;21.014;2023-02-15T13:19:14;164397.63;;;2.47;100.00
45255;BME280;30989;52.078;21.014;2023-02-15T13:21:47;164388.28;;;2.44;100.00
45255;BME280;30989;52.078;21.014;2023-02-15T13:24:27;164384.28;;;2.42;100.00
45255;BME280;30989;52.078;21.014;2023-02-15T13:26:56;164390.97;;;2.45;100.00
45255;BME280;30989;52.078;21.014;2023-02-15T13:29:28;164390.97;;;2.45;100.00
45255;BME280;30989;52.078;21.014;2023-02-15T13:31:55;164374.97;;;2.39;100.00
45255;BME280;30989;52.078;21.014;2023-02-15T13:34:28;164378.97;;;2.40;100.00
45255;BME280;30989;52.078;21.014;2023-02-15T13:37:01;164380.31;;;2.41;100.00
45255;BME280;30989;52.078;21.014;2023-02-15T13:42:25;164386.97;;;2.43;100.00
45255;BME280;30989;52.078;21.014;2023-02-15T13:45:20;164389.63;;;2.44;100.00
45255;BME280;30989;52.078;21.014;2023-02-15T13:48:18;164405.59;;;2.50;100.00
45255;BME280;30989;52.078;21.014;2023-02-15T13:51:12;164397.63;;;2.47;100.00
45255;BME280;30989;52.078;21.014;2023-02-15T14:01:49;164366.97;;;2.36;100.00
45255;BME280;30989;52.078;21.014;2023-02-15T14:15:46;164327.03;;;2.20;100.00
45255;BME280;30989;52.078;21.014;2023-02-15T14:18:26;164335.00;;;2.23;100.00
45255;BME280;30989;52.078;21.014;2023-02-15T14:21:10;164344.34;;;2.27;100.00
45255;BME280;30989;52.078;21.014;2023-02-15T14:26:15;164319.03;;;2.17;100.00
45255;BME280;30989;52.078;21.014;2023-02-15T14:28:56;164327.03;;;2.20;100.00
45255;BME280;30989;52.078;21.014;2023-02-15T14:31:33;164319.03;;;2.17;100.00
45255;BME280;30989;52.078;21.014;2023-02-15T14:34:00;164303.06;;;2.11;100.00
45255;BME280;30989;52.078;21.014;2023-02-15T14:36:27;164312.38;;;2.15;100.00
45255;BME280;30989;52.078;21.014;2023-02-15T14:42:10;164309.72;;;2.14;100.00
45255;BME280;30989;52.078;21.014;2023-02-15T14:44:43;164311.06;;;2.14;100.00
45255;BME280;30989;52.078;21.014;2023-02-15T14:47:20;164305.72;;;2.12;100.00
45255;BME280;30989;52.078;21.014;2023-02-15T14:49:47;164312.38;;;2.15;100.00
45255;BME280;30989;52.078;21.014;2023-02-15T14:52:12;164312.38;;;2.15;100.00
45255;BME280;30989;52.078;21.014;2023-02-15T14:59:41;164337.69;;;2.24;100.00
45255;BME280;30989;52.078;21.014;2023-02-15T15:09:59;164287.06;;;2.05;100.00
45255;BME280;30989;52.078;21.014;2023-02-15T15:14:52;164276.41;;;2.01;100.00